sensor_id;sensor_type;location;lat;lon;timestamp;P1;durP1;ratioP1;P2;durP2;ratioP2
68989;SDS011;56046;47.270;11.368;2022-11-09T00:01:17;6.40;;;2.90;;
68989;SDS011;56046;47.270;11.368;2022-11-09T00:03:43;6.75;;;3.00;;
68989;SDS011;56046;47.270;11.368;2022-11-09T00:06:09;4.90;;;2.70;;
68989;SDS011;56046;47.270;11.368;2022-11-09T00:08:38;9.57;;;3.40;;
68989;SDS011;56046;47.270;11.368;2022-11-09T00:11:05;7.20;;;3.47;;
68989;SDS011;56046;47.270;11.368;2022-11-09T00:13:36;9.45;;;3.85;;
68989;SDS011;56046;47.270;11.368;2022-11-09T00:16:03;6.90;;;2.90;;
68989;SDS011;56046;47.270;11.368;2022-11-09T00:18:30;6.82;;;2.47;;
68989;SDS011;56046;47.270;11.368;2022-11-09T00:20:56;4.18;;;2.00;;
68989;SDS011;56046;47.270;11.368;2022-11-09T00:23:21;5.47;;;2.17;;
68989;SDS011;56046;47.270;11.368;2022-11-09T00:25:47;5.47;;;2.03;;
68989;SDS011;56046;47.270;11.368;2022-11-09T00:28:12;4.10;;;1.80;;
68989;SDS011;56046;47.270;11.368;2022-11-09T00:30:39;5.67;;;2.10;;
68989;SDS011;56046;47.270;11.368;2022-11-09T00:33:04;7.47;;;2.00;;
68989;SDS011;56046;47.270;11.368;2022-11-09T00:35:30;4.87;;;2.30;;
68989;SDS011;56046;47.270;11.368;2022-11-09T00:37:55;4.70;;;1.85;;
68989;SDS011;56046;47.270;11.368;2022-11-09T00:40:21;4.03;;;1.80;;
68989;SDS011;56046;47.270;11.368;2022-11-09T00:42:46;4.43;;;1.97;;
68989;SDS011;56046;47.270;11.368;2022-11-09T00:45:12;7.90;;;2.17;;
68989;SDS011;56046;47.270;11.368;2022-11-09T00:47:37;4.47;;;1.83;;
68989;SDS011;56046;47.270;11.368;2022-11-09T00:50:03;4.33;;;1.97;;
68989;SDS011;56046;47.270;11.368;2022-11-09T00:52:29;4.75;;;1.98;;
68989;SDS011;56046;47.270;11.368;2022-11-09T00:54:54;4.40;;;1.90;;
68989;SDS011;56046;47.270;11.368;2022-11-09T00:57:20;4.50;;;2.53;;
68989;SDS011;56046;47.270;11.368;2022-11-09T00:59:45;4.90;;;2.23;;
68989;SDS011;56046;47.270;11.368;2022-11-09T01:02:11;7.15;;;2.40;;
68989;SDS011;56046;47.270;11.368;2022-11-09T01:04:36;5.30;;;1.83;;
68989;SDS011;56046;47.270;11.368;2022-11-09T01:07:02;5.33;;;2.20;;
68989;SDS011;56046;47.270;11.368;2022-11-09T01:09:27;7.20;;;2.80;;
68989;SDS011;56046;47.270;11.368;2022-11-09T01:11:53;7.85;;;3.30;;
68989;SDS011;56046;47.270;11.368;2022-11-09T01:14:18;9.73;;;4.30;;
68989;SDS011;56046;47.270;11.368;2022-11-09T01:16:44;7.63;;;3.90;;
68989;SDS011;56046;47.270;11.368;2022-11-09T01:19:10;7.43;;;4.20;;
68989;SDS011;56046;47.270;11.368;2022-11-09T01:21:35;8.65;;;4.22;;
68989;SDS011;56046;47.270;11.368;2022-11-09T01:24:01;7.27;;;3.33;;
68989;SDS011;56046;47.270;11.368;2022-11-09T01:26:27;6.47;;;2.63;;
68989;SDS011;56046;47.270;11.368;2022-11-09T01:28:53;6.35;;;2.70;;
68989;SDS011;56046;47.270;11.368;2022-11-09T01:31:19;4.63;;;2.00;;
68989;SDS011;56046;47.270;11.368;2022-11-09T01:33:46;5.93;;;2.13;;
68989;SDS011;56046;47.270;11.368;2022-11-09T01:36:16;3.95;;;1.85;;
68989;SDS011;56046;47.270;11.368;2022-11-09T01:38:43;4.93;;;1.60;;
68989;SDS011;56046;47.270;11.368;2022-11-09T01:41:11;4.20;;;1.60;;
68989;SDS011;56046;47.270;11.368;2022-11-09T01:43:39;4.82;;;1.70;;
68989;SDS011;56046;47.270;11.368;2022-11-09T01:46:21;3.80;;;1.43;;
68989;SDS011;56046;47.270;11.368;2022-11-09T01:48:58;4.45;;;1.90;;
68989;SDS011;56046;47.270;11.368;2022-11-09T01:51:32;11.35;;;3.22;;
68989;SDS011;56046;47.270;11.368;2022-11-09T01:54:33;7.57;;;3.35;;
68989;SDS011;56046;47.270;11.368;2022-11-09T01:57:00;8.27;;;3.70;;
68989;SDS011;56046;47.270;11.368;2022-11-09T01:59:33;7.13;;;2.60;;
68989;SDS011;56046;47.270;11.368;2022-11-09T02:02:03;5.25;;;1.92;;
68989;SDS011;56046;47.270;11.368;2022-11-09T02:04:36;4.53;;;2.20;;
68989;SDS011;56046;47.270;11.368;2022-11-09T02:07:14;5.28;;;2.33;;
68989;SDS011;56046;47.270;11.368;2022-11-09T02:09:51;6.53;;;2.53;;
68989;SDS011;56046;47.270;11.368;2022-11-09T02:12:18;6.25;;;2.50;;
68989;SDS011;56046;47.270;11.368;2022-11-09T02:14:47;3.85;;;1.77;;
68989;SDS011;56046;47.270;11.368;2022-11-09T02:17:14;4.68;;;1.50;;
68989;SDS011;56046;47.270;11.368;2022-11-09T02:19:41;4.70;;;2.03;;
68989;SDS011;56046;47.270;11.368;2022-11-09T02:22:06;5.57;;;1.43;;
68989;SDS011;56046;47.270;11.368;2022-11-09T02:24:32;3.93;;;1.63;;
68989;SDS011;56046;47.270;11.368;2022-11-09T02:26:58;3.75;;;1.42;;
68989;SDS011;56046;47.270;11.368;2022-11-09T02:29:25;4.60;;;1.85;;
68989;SDS011;56046;47.270;11.368;2022-11-09T02:31:56;4.45;;;1.98;;
68989;SDS011;56046;47.270;11.368;2022-11-09T02:34:24;5.93;;;2.75;;
68989;SDS011;56046;47.270;11.368;2022-11-09T02:36:50;5.97;;;2.80;;
68989;SDS011;56046;47.270;11.368;2022-11-09T02:39:17;6.63;;;2.00;;
68989;SDS011;56046;47.270;11.368;2022-11-09T02:44:22;4.47;;;1.80;;
68989;SDS011;56046;47.270;11.368;2022-11-09T02:46:49;4.47;;;1.60;;
68989;SDS011;56046;47.270;11.368;2022-11-09T02:49:14;5.83;;;1.90;;
68989;SDS011;56046;47.270;11.368;2022-11-09T02:51:40;4.73;;;1.77;;
68989;SDS011;56046;47.270;11.368;2022-11-09T02:54:05;3.20;;;1.45;;
68989;SDS011;56046;47.270;11.368;2022-11-09T02:56:30;5.28;;;1.92;;
68989;SDS011;56046;47.270;11.368;2022-11-09T02:58:56;4.13;;;1.87;;
68989;SDS011;56046;47.270;11.368;2022-11-09T03:01:21;4.77;;;1.70;;
68989;SDS011;56046;47.270;11.368;2022-11-09T03:03:47;5.03;;;1.83;;
68989;SDS011;56046;47.270;11.368;2022-11-09T03:06:12;3.00;;;1.52;;
68989;SDS011;56046;47.270;11.368;2022-11-09T03:08:37;4.23;;;1.57;;
68989;SDS011;56046;47.270;11.368;2022-11-09T03:11:03;3.03;;;1.20;;
68989;SDS011;56046;47.270;11.368;2022-11-09T03:13:30;4.10;;;1.38;;
68989;SDS011;56046;47.270;11.368;2022-11-09T03:15:56;3.70;;;1.48;;
68989;SDS011;56046;47.270;11.368;2022-11-09T03:18:22;3.77;;;1.40;;
68989;SDS011;56046;47.270;11.368;2022-11-09T03:20:47;2.73;;;1.43;;
68989;SDS011;56046;47.270;11.368;2022-11-09T03:23:13;2.17;;;1.23;;
68989;SDS011;56046;47.270;11.368;2022-11-09T03:25:38;3.97;;;1.40;;
68989;SDS011;56046;47.270;11.368;2022-11-09T03:28:04;2.93;;;1.40;;
68989;SDS011;56046;47.270;11.368;2022-11-09T03:30:31;3.95;;;1.40;;
68989;SDS011;56046;47.270;11.368;2022-11-09T03:32:58;4.05;;;1.52;;
68989;SDS011;56046;47.270;11.368;2022-11-09T03:35:24;4.07;;;1.60;;
68989;SDS011;56046;47.270;11.368;2022-11-09T03:37:49;4.18;;;1.40;;
68989;SDS011;56046;47.270;11.368;2022-11-09T03:40:15;4.13;;;1.40;;
68989;SDS011;56046;47.270;11.368;2022-11-09T03:42:44;8.13;;;2.10;;
68989;SDS011;56046;47.270;11.368;2022-11-09T03:45:10;4.55;;;1.80;;
68989;SDS011;56046;47.270;11.368;2022-11-09T03:47:39;4.30;;;1.63;;
68989;SDS011;56046;47.270;11.368;2022-11-09T03:50:08;3.45;;;1.40;;
68989;SDS011;56046;47.270;11.368;2022-11-09T03:52:34;3.40;;;1.00;;
68989;SDS011;56046;47.270;11.368;2022-11-09T03:54:59;3.28;;;1.50;;
68989;SDS011;56046;47.270;11.368;2022-11-09T03:57:25;2.63;;;1.20;;
68989;SDS011;56046;47.270;11.368;2022-11-09T03:59:50;3.13;;;1.57;;
68989;SDS011;56046;47.270;11.368;2022-11-09T04:02:16;4.80;;;1.50;;
68989;SDS011;56046;47.270;11.368;2022-11-09T04:04:41;3.03;;;1.20;;
68989;SDS011;56046;47.270;11.368;2022-11-09T04:07:08;3.23;;;1.33;;
68989;SDS011;56046;47.270;11.368;2022-11-09T04:09:34;3.08;;;1.45;;
68989;SDS011;56046;47.270;11.368;2022-11-09T04:11:59;4.17;;;1.73;;
68989;SDS011;56046;47.270;11.368;2022-11-09T04:14:25;5.70;;;1.50;;
68989;SDS011;56046;47.270;11.368;2022-11-09T04:16:50;3.10;;;1.30;;
68989;SDS011;56046;47.270;11.368;2022-11-09T04:19:16;2.50;;;1.30;;
68989;SDS011;56046;47.270;11.368;2022-11-09T04:21:41;4.33;;;1.30;;
68989;SDS011;56046;47.270;11.368;2022-11-09T04:24:06;5.33;;;2.20;;
68989;SDS011;56046;47.270;11.368;2022-11-09T04:26:32;5.40;;;2.73;;
68989;SDS011;56046;47.270;11.368;2022-11-09T04:28:57;4.30;;;1.80;;
68989;SDS011;56046;47.270;11.368;2022-11-09T04:31:23;8.75;;;4.10;;
68989;SDS011;56046;47.270;11.368;2022-11-09T04:33:48;4.60;;;1.80;;
68989;SDS011;56046;47.270;11.368;2022-11-09T04:36:15;7.18;;;2.40;;
68989;SDS011;56046;47.270;11.368;2022-11-09T04:38:40;5.50;;;2.60;;
68989;SDS011;56046;47.270;11.368;2022-11-09T04:41:06;6.07;;;3.03;;
68989;SDS011;56046;47.270;11.368;2022-11-09T04:43:32;8.48;;;3.22;;
68989;SDS011;56046;47.270;11.368;2022-11-09T04:45:58;6.40;;;3.17;;
68989;SDS011;56046;47.270;11.368;2022-11-09T04:48:27;8.13;;;3.42;;
68989;SDS011;56046;47.270;11.368;2022-11-09T04:51:00;10.43;;;3.28;;
68989;SDS011;56046;47.270;11.368;2022-11-09T04:53:34;6.80;;;2.70;;
68989;SDS011;56046;47.270;11.368;2022-11-09T04:56:00;14.95;;;4.72;;
68989;SDS011;56046;47.270;11.368;2022-11-09T04:58:26;11.77;;;4.07;;
68989;SDS011;56046;47.270;11.368;2022-11-09T05:00:52;7.13;;;2.30;;
68989;SDS011;56046;47.270;11.368;2022-11-09T05:03:18;15.43;;;3.67;;
68989;SDS011;56046;47.270;11.368;2022-11-09T05:05:44;8.67;;;2.27;;
68989;SDS011;56046;47.270;11.368;2022-11-09T05:08:10;8.45;;;2.22;;
68989;SDS011;56046;47.270;11.368;2022-11-09T05:10:35;12.47;;;3.13;;
68989;SDS011;56046;47.270;11.368;2022-11-09T05:13:05;8.52;;;2.40;;
68989;SDS011;56046;47.270;11.368;2022-11-09T05:15:32;4.25;;;1.38;;
68989;SDS011;56046;47.270;11.368;2022-11-09T05:17:59;5.43;;;1.70;;
68989;SDS011;56046;47.270;11.368;2022-11-09T05:20:25;4.97;;;2.45;;
68989;SDS011;56046;47.270;11.368;2022-11-09T05:22:51;5.72;;;2.60;;
68989;SDS011;56046;47.270;11.368;2022-11-09T05:25:35;6.40;;;2.55;;
68989;SDS011;56046;47.270;11.368;2022-11-09T05:28:01;6.07;;;2.83;;
68989;SDS011;56046;47.270;11.368;2022-11-09T05:30:26;10.47;;;5.27;;
68989;SDS011;56046;47.270;11.368;2022-11-09T05:32:52;7.18;;;3.75;;
68989;SDS011;56046;47.270;11.368;2022-11-09T05:35:18;3.80;;;1.83;;
68989;SDS011;56046;47.270;11.368;2022-11-09T05:37:46;4.03;;;1.80;;
68989;SDS011;56046;47.270;11.368;2022-11-09T05:40:13;4.60;;;1.50;;
68989;SDS011;56046;47.270;11.368;2022-11-09T05:42:39;5.22;;;2.47;;
68989;SDS011;56046;47.270;11.368;2022-11-09T05:45:06;7.33;;;3.63;;
68989;SDS011;56046;47.270;11.368;2022-11-09T05:47:39;8.80;;;3.92;;
68989;SDS011;56046;47.270;11.368;2022-11-09T05:50:06;9.02;;;3.97;;
68989;SDS011;56046;47.270;11.368;2022-11-09T05:52:33;7.35;;;3.55;;
68989;SDS011;56046;47.270;11.368;2022-11-09T05:54:58;9.40;;;4.77;;
68989;SDS011;56046;47.270;11.368;2022-11-09T05:57:25;7.15;;;3.15;;
68989;SDS011;56046;47.270;11.368;2022-11-09T05:59:51;7.65;;;3.53;;
68989;SDS011;56046;47.270;11.368;2022-11-09T06:02:17;5.87;;;2.23;;
68989;SDS011;56046;47.270;11.368;2022-11-09T06:04:43;10.60;;;5.47;;
68989;SDS011;56046;47.270;11.368;2022-11-09T06:07:08;10.27;;;3.80;;
68989;SDS011;56046;47.270;11.368;2022-11-09T06:09:33;9.67;;;3.70;;
68989;SDS011;56046;47.270;11.368;2022-11-09T06:11:59;6.23;;;2.83;;
68989;SDS011;56046;47.270;11.368;2022-11-09T06:14:24;11.07;;;3.53;;
68989;SDS011;56046;47.270;11.368;2022-11-09T06:16:50;6.55;;;2.85;;
68989;SDS011;56046;47.270;11.368;2022-11-09T06:19:15;7.90;;;2.97;;
68989;SDS011;56046;47.270;11.368;2022-11-09T06:21:40;6.57;;;2.83;;
68989;SDS011;56046;47.270;11.368;2022-11-09T06:24:06;5.97;;;2.80;;
68989;SDS011;56046;47.270;11.368;2022-11-09T06:26:31;6.73;;;2.60;;
68989;SDS011;56046;47.270;11.368;2022-11-09T06:28:57;2.83;;;1.42;;
68989;SDS011;56046;47.270;11.368;2022-11-09T06:31:22;3.67;;;1.77;;
68989;SDS011;56046;47.270;11.368;2022-11-09T06:33:48;3.83;;;1.50;;
68989;SDS011;56046;47.270;11.368;2022-11-09T06:36:13;4.17;;;1.50;;
68989;SDS011;56046;47.270;11.368;2022-11-09T06:38:39;2.97;;;1.45;;
68989;SDS011;56046;47.270;11.368;2022-11-09T06:41:05;3.70;;;1.33;;
68989;SDS011;56046;47.270;11.368;2022-11-09T06:43:31;3.50;;;1.35;;
68989;SDS011;56046;47.270;11.368;2022-11-09T06:45:58;4.72;;;1.30;;
68989;SDS011;56046;47.270;11.368;2022-11-09T06:48:27;2.25;;;1.02;;
68989;SDS011;56046;47.270;11.368;2022-11-09T06:50:52;4.47;;;1.30;;
68989;SDS011;56046;47.270;11.368;2022-11-09T06:53:18;2.60;;;1.03;;
68989;SDS011;56046;47.270;11.368;2022-11-09T06:55:44;2.05;;;1.00;;
68989;SDS011;56046;47.270;11.368;2022-11-09T06:58:10;2.80;;;1.30;;
68989;SDS011;56046;47.270;11.368;2022-11-09T07:00:40;5.25;;;2.13;;
68989;SDS011;56046;47.270;11.368;2022-11-09T07:03:07;5.78;;;2.42;;
68989;SDS011;56046;47.270;11.368;2022-11-09T07:05:36;6.20;;;2.37;;
68989;SDS011;56046;47.270;11.368;2022-11-09T07:08:03;6.70;;;2.20;;
68989;SDS011;56046;47.270;11.368;2022-11-09T07:10:29;6.97;;;2.27;;
68989;SDS011;56046;47.270;11.368;2022-11-09T07:12:55;4.50;;;2.13;;
68989;SDS011;56046;47.270;11.368;2022-11-09T07:15:22;4.80;;;2.17;;
68989;SDS011;56046;47.270;11.368;2022-11-09T07:17:47;5.97;;;2.90;;
68989;SDS011;56046;47.270;11.368;2022-11-09T07:20:13;6.63;;;2.30;;
68989;SDS011;56046;47.270;11.368;2022-11-09T07:22:39;8.50;;;3.53;;
68989;SDS011;56046;47.270;11.368;2022-11-09T07:25:06;8.13;;;3.67;;
68989;SDS011;56046;47.270;11.368;2022-11-09T07:27:32;6.40;;;2.70;;
68989;SDS011;56046;47.270;11.368;2022-11-09T07:29:57;4.80;;;2.10;;
68989;SDS011;56046;47.270;11.368;2022-11-09T07:32:26;5.90;;;1.90;;
68989;SDS011;56046;47.270;11.368;2022-11-09T07:34:51;6.10;;;1.95;;
68989;SDS011;56046;47.270;11.368;2022-11-09T07:37:17;6.23;;;2.00;;
68989;SDS011;56046;47.270;11.368;2022-11-09T07:39:42;7.60;;;2.00;;
68989;SDS011;56046;47.270;11.368;2022-11-09T07:42:08;5.05;;;2.10;;
68989;SDS011;56046;47.270;11.368;2022-11-09T07:44:33;9.27;;;2.13;;
68989;SDS011;56046;47.270;11.368;2022-11-09T07:46:59;5.37;;;2.33;;
68989;SDS011;56046;47.270;11.368;2022-11-09T07:49:24;4.37;;;2.00;;
68989;SDS011;56046;47.270;11.368;2022-11-09T07:51:50;8.77;;;2.45;;
68989;SDS011;56046;47.270;11.368;2022-11-09T07:54:15;5.90;;;2.63;;
68989;SDS011;56046;47.270;11.368;2022-11-09T07:56:40;9.80;;;3.70;;
68989;SDS011;56046;47.270;11.368;2022-11-09T07:59:06;9.47;;;3.40;;
68989;SDS011;56046;47.270;11.368;2022-11-09T08:01:31;8.03;;;3.53;;
68989;SDS011;56046;47.270;11.368;2022-11-09T08:03:57;6.18;;;2.80;;
68989;SDS011;56046;47.270;11.368;2022-11-09T08:06:22;6.83;;;3.07;;
68989;SDS011;56046;47.270;11.368;2022-11-09T08:08:52;7.32;;;2.95;;
68989;SDS011;56046;47.270;11.368;2022-11-09T08:11:18;7.23;;;2.60;;
68989;SDS011;56046;47.270;11.368;2022-11-09T08:13:43;6.28;;;2.90;;
68989;SDS011;56046;47.270;11.368;2022-11-09T08:16:09;5.17;;;2.43;;
68989;SDS011;56046;47.270;11.368;2022-11-09T08:18:34;5.83;;;2.83;;
68989;SDS011;56046;47.270;11.368;2022-11-09T08:21:00;5.67;;;2.53;;
68989;SDS011;56046;47.270;11.368;2022-11-09T08:23:27;6.07;;;2.75;;
68989;SDS011;56046;47.270;11.368;2022-11-09T08:25:53;6.40;;;2.90;;
68989;SDS011;56046;47.270;11.368;2022-11-09T08:28:18;6.17;;;2.90;;
68989;SDS011;56046;47.270;11.368;2022-11-09T08:30:44;7.10;;;2.87;;
68989;SDS011;56046;47.270;11.368;2022-11-09T08:33:10;6.32;;;2.90;;
68989;SDS011;56046;47.270;11.368;2022-11-09T08:35:36;6.68;;;2.95;;
68989;SDS011;56046;47.270;11.368;2022-11-09T08:38:03;5.50;;;2.90;;
68989;SDS011;56046;47.270;11.368;2022-11-09T08:40:30;6.63;;;3.40;;
68989;SDS011;56046;47.270;11.368;2022-11-09T08:42:59;6.90;;;2.90;;
68989;SDS011;56046;47.270;11.368;2022-11-09T08:45:30;6.40;;;3.00;;
68989;SDS011;56046;47.270;11.368;2022-11-09T08:47:57;5.28;;;2.85;;
68989;SDS011;56046;47.270;11.368;2022-11-09T08:50:24;8.60;;;3.10;;
68989;SDS011;56046;47.270;11.368;2022-11-09T08:52:50;9.20;;;3.00;;
68989;SDS011;56046;47.270;11.368;2022-11-09T08:55:15;7.32;;;2.47;;
68989;SDS011;56046;47.270;11.368;2022-11-09T08:57:41;5.90;;;2.90;;
68989;SDS011;56046;47.270;11.368;2022-11-09T09:00:06;4.97;;;2.30;;
68989;SDS011;56046;47.270;11.368;2022-11-09T09:02:32;5.03;;;2.33;;
68989;SDS011;56046;47.270;11.368;2022-11-09T09:04:58;7.28;;;2.60;;
68989;SDS011;56046;47.270;11.368;2022-11-09T09:07:24;7.17;;;2.70;;
68989;SDS011;56046;47.270;11.368;2022-11-09T09:09:49;6.63;;;2.83;;
68989;SDS011;56046;47.270;11.368;2022-11-09T09:12:15;6.72;;;2.70;;
68989;SDS011;56046;47.270;11.368;2022-11-09T09:14:42;6.80;;;2.23;;
68989;SDS011;56046;47.270;11.368;2022-11-09T09:17:08;5.43;;;2.22;;
68989;SDS011;56046;47.270;11.368;2022-11-09T09:19:34;5.67;;;2.80;;
68989;SDS011;56046;47.270;11.368;2022-11-09T09:21:59;6.13;;;2.70;;
68989;SDS011;56046;47.270;11.368;2022-11-09T09:24:25;6.00;;;2.50;;
68989;SDS011;56046;47.270;11.368;2022-11-09T09:26:51;5.40;;;2.83;;
68989;SDS011;56046;47.270;11.368;2022-11-09T09:29:16;12.20;;;3.50;;
68989;SDS011;56046;47.270;11.368;2022-11-09T09:31:42;6.25;;;2.78;;
68989;SDS011;56046;47.270;11.368;2022-11-09T09:34:08;5.83;;;2.87;;
68989;SDS011;56046;47.270;11.368;2022-11-09T09:36:35;5.43;;;2.90;;
68989;SDS011;56046;47.270;11.368;2022-11-09T09:39:01;7.63;;;2.80;;
68989;SDS011;56046;47.270;11.368;2022-11-09T09:43:59;7.55;;;2.88;;
68989;SDS011;56046;47.270;11.368;2022-11-09T09:49:33;8.93;;;3.50;;
68989;SDS011;56046;47.270;11.368;2022-11-09T09:52:10;6.03;;;2.75;;
68989;SDS011;56046;47.270;11.368;2022-11-09T09:54:43;5.70;;;2.50;;
68989;SDS011;56046;47.270;11.368;2022-11-09T09:57:20;5.38;;;2.05;;
68989;SDS011;56046;47.270;11.368;2022-11-09T09:59:50;5.82;;;2.13;;
68989;SDS011;56046;47.270;11.368;2022-11-09T10:02:22;4.60;;;1.95;;
68989;SDS011;56046;47.270;11.368;2022-11-09T10:04:48;6.70;;;2.17;;
68989;SDS011;56046;47.270;11.368;2022-11-09T10:24:09;5.35;;;2.05;;
68989;SDS011;56046;47.270;11.368;2022-11-09T10:32:16;4.20;;;2.03;;
68989;SDS011;56046;47.270;11.368;2022-11-09T10:34:54;5.32;;;1.77;;
68989;SDS011;56046;47.270;11.368;2022-11-09T10:37:39;5.47;;;2.00;;
68989;SDS011;56046;47.270;11.368;2022-11-09T10:42:32;7.53;;;2.93;;
68989;SDS011;56046;47.270;11.368;2022-11-09T10:44:58;5.85;;;1.83;;
68989;SDS011;56046;47.270;11.368;2022-11-09T10:47:45;4.00;;;1.53;;
68989;SDS011;56046;47.270;11.368;2022-11-09T10:53:07;4.70;;;1.70;;
68989;SDS011;56046;47.270;11.368;2022-11-09T10:55:48;4.20;;;1.60;;
68989;SDS011;56046;47.270;11.368;2022-11-09T10:58:39;3.60;;;2.00;;
68989;SDS011;56046;47.270;11.368;2022-11-09T11:01:16;5.67;;;2.33;;
68989;SDS011;56046;47.270;11.368;2022-11-09T11:03:44;4.68;;;2.40;;
68989;SDS011;56046;47.270;11.368;2022-11-09T11:08:46;4.80;;;2.25;;
68989;SDS011;56046;47.270;11.368;2022-11-09T11:13:47;7.27;;;3.20;;
68989;SDS011;56046;47.270;11.368;2022-11-09T11:16:24;6.18;;;3.05;;
68989;SDS011;56046;47.270;11.368;2022-11-09T11:18:52;6.17;;;3.03;;
68989;SDS011;56046;47.270;11.368;2022-11-09T11:21:18;8.10;;;3.05;;
68989;SDS011;56046;47.270;11.368;2022-11-09T11:32:17;6.38;;;2.85;;
68989;SDS011;56046;47.270;11.368;2022-11-09T11:34:44;5.70;;;2.72;;
68989;SDS011;56046;47.270;11.368;2022-11-09T11:38:15;6.72;;;3.20;;
68989;SDS011;56046;47.270;11.368;2022-11-09T11:40:40;8.52;;;2.78;;
68989;SDS011;56046;47.270;11.368;2022-11-09T11:43:10;5.70;;;3.00;;
68989;SDS011;56046;47.270;11.368;2022-11-09T12:00:27;7.10;;;3.45;;
68989;SDS011;56046;47.270;11.368;2022-11-09T12:02:50;6.60;;;3.17;;
68989;SDS011;56046;47.270;11.368;2022-11-09T12:08:48;6.78;;;2.85;;
68989;SDS011;56046;47.270;11.368;2022-11-09T12:22:43;7.93;;;3.00;;
68989;SDS011;56046;47.270;11.368;2022-11-09T12:30:57;7.05;;;2.75;;
68989;SDS011;56046;47.270;11.368;2022-11-09T12:36:23;6.70;;;2.88;;
68989;SDS011;56046;47.270;11.368;2022-11-09T12:41:30;9.70;;;2.83;;
68989;SDS011;56046;47.270;11.368;2022-11-09T12:44:03;6.65;;;2.70;;
68989;SDS011;56046;47.270;11.368;2022-11-09T12:46:36;5.40;;;2.40;;
68989;SDS011;56046;47.270;11.368;2022-11-09T12:49:08;6.07;;;2.97;;
68989;SDS011;56046;47.270;11.368;2022-11-09T12:51:47;8.23;;;2.93;;
68989;SDS011;56046;47.270;11.368;2022-11-09T12:54:13;6.90;;;2.60;;
68989;SDS011;56046;47.270;11.368;2022-11-09T12:57:00;6.23;;;2.47;;
68989;SDS011;56046;47.270;11.368;2022-11-09T13:01:55;6.77;;;2.40;;
68989;SDS011;56046;47.270;11.368;2022-11-09T13:04:22;7.25;;;2.67;;
68989;SDS011;56046;47.270;11.368;2022-11-09T13:10:02;5.93;;;2.90;;
68989;SDS011;56046;47.270;11.368;2022-11-09T13:14:57;5.63;;;2.73;;
68989;SDS011;56046;47.270;11.368;2022-11-09T13:23:00;8.45;;;2.60;;
68989;SDS011;56046;47.270;11.368;2022-11-09T13:31:08;6.38;;;2.63;;
68989;SDS011;56046;47.270;11.368;2022-11-09T13:33:34;6.20;;;2.90;;
68989;SDS011;56046;47.270;11.368;2022-11-09T13:38:33;7.93;;;2.70;;
68989;SDS011;56046;47.270;11.368;2022-11-09T13:41:00;5.90;;;2.37;;
68989;SDS011;56046;47.270;11.368;2022-11-09T13:43:29;7.50;;;2.50;;
68989;SDS011;56046;47.270;11.368;2022-11-09T13:45:59;9.88;;;2.70;;
68989;SDS011;56046;47.270;11.368;2022-11-09T13:51:04;7.60;;;3.08;;
68989;SDS011;56046;47.270;11.368;2022-11-09T13:58:44;10.35;;;2.80;;
68989;SDS011;56046;47.270;11.368;2022-11-09T14:01:24;6.38;;;3.05;;
68989;SDS011;56046;47.270;11.368;2022-11-09T14:03:56;7.07;;;2.75;;
68989;SDS011;56046;47.270;11.368;2022-11-09T14:06:22;5.90;;;3.17;;
68989;SDS011;56046;47.270;11.368;2022-11-09T14:08:48;7.30;;;3.50;;
68989;SDS011;56046;47.270;11.368;2022-11-09T14:22:25;8.50;;;3.00;;
68989;SDS011;56046;47.270;11.368;2022-11-09T14:24:58;6.95;;;3.05;;
68989;SDS011;56046;47.270;11.368;2022-11-09T14:27:23;8.23;;;2.90;;
68989;SDS011;56046;47.270;11.368;2022-11-09T14:29:53;10.13;;;3.25;;
68989;SDS011;56046;47.270;11.368;2022-11-09T14:35:17;6.15;;;2.15;;
68989;SDS011;56046;47.270;11.368;2022-11-09T14:37:43;7.72;;;3.10;;
68989;SDS011;56046;47.270;11.368;2022-11-09T14:42:59;5.63;;;2.20;;
68989;SDS011;56046;47.270;11.368;2022-11-09T14:45:27;8.37;;;2.60;;
68989;SDS011;56046;47.270;11.368;2022-11-09T14:47:54;7.57;;;2.78;;
68989;SDS011;56046;47.270;11.368;2022-11-09T14:50:30;6.85;;;2.20;;
68989;SDS011;56046;47.270;11.368;2022-11-09T14:52:59;4.85;;;2.13;;
68989;SDS011;56046;47.270;11.368;2022-11-09T14:55:26;7.35;;;2.78;;
68989;SDS011;56046;47.270;11.368;2022-11-09T14:57:53;5.67;;;2.67;;
68989;SDS011;56046;47.270;11.368;2022-11-09T15:00:20;4.30;;;2.30;;
68989;SDS011;56046;47.270;11.368;2022-11-09T15:02:46;6.63;;;2.42;;
68989;SDS011;56046;47.270;11.368;2022-11-09T15:05:30;6.13;;;2.50;;
68989;SDS011;56046;47.270;11.368;2022-11-09T15:08:03;5.40;;;2.30;;
68989;SDS011;56046;47.270;11.368;2022-11-09T15:10:29;6.88;;;2.58;;
68989;SDS011;56046;47.270;11.368;2022-11-09T15:12:58;5.25;;;2.20;;
68989;SDS011;56046;47.270;11.368;2022-11-09T15:15:27;11.10;;;3.90;;
68989;SDS011;56046;47.270;11.368;2022-11-09T15:17:54;7.85;;;2.55;;
68989;SDS011;56046;47.270;11.368;2022-11-09T15:22:48;7.00;;;2.43;;
68989;SDS011;56046;47.270;11.368;2022-11-09T15:33:23;5.15;;;2.58;;
68989;SDS011;56046;47.270;11.368;2022-11-09T15:35:57;6.07;;;2.67;;
68989;SDS011;56046;47.270;11.368;2022-11-09T15:38:36;4.15;;;2.20;;
68989;SDS011;56046;47.270;11.368;2022-11-09T15:41:19;5.75;;;2.45;;
68989;SDS011;56046;47.270;11.368;2022-11-09T15:43:46;6.67;;;2.63;;
68989;SDS011;56046;47.270;11.368;2022-11-09T15:46:16;7.82;;;3.00;;
68989;SDS011;56046;47.270;11.368;2022-11-09T15:48:44;6.80;;;2.53;;
68989;SDS011;56046;47.270;11.368;2022-11-09T15:51:11;6.25;;;2.40;;
68989;SDS011;56046;47.270;11.368;2022-11-09T15:53:37;7.77;;;3.20;;
68989;SDS011;56046;47.270;11.368;2022-11-09T15:56:03;5.25;;;2.22;;
68989;SDS011;56046;47.270;11.368;2022-11-09T15:58:30;7.32;;;2.90;;
68989;SDS011;56046;47.270;11.368;2022-11-09T16:00:55;5.43;;;2.27;;
68989;SDS011;56046;47.270;11.368;2022-11-09T16:03:21;5.10;;;2.20;;
68989;SDS011;56046;47.270;11.368;2022-11-09T16:05:46;5.63;;;1.80;;
68989;SDS011;56046;47.270;11.368;2022-11-09T16:08:14;4.30;;;1.50;;
68989;SDS011;56046;47.270;11.368;2022-11-09T16:10:40;5.30;;;1.90;;
68989;SDS011;56046;47.270;11.368;2022-11-09T16:13:07;4.55;;;2.00;;
68989;SDS011;56046;47.270;11.368;2022-11-09T16:15:34;4.10;;;2.20;;
68989;SDS011;56046;47.270;11.368;2022-11-09T16:18:01;8.20;;;2.53;;
68989;SDS011;56046;47.270;11.368;2022-11-09T16:20:27;4.95;;;2.20;;
68989;SDS011;56046;47.270;11.368;2022-11-09T16:22:53;5.63;;;2.45;;
68989;SDS011;56046;47.270;11.368;2022-11-09T16:25:18;6.80;;;2.90;;
68989;SDS011;56046;47.270;11.368;2022-11-09T16:27:44;10.63;;;3.42;;
68989;SDS011;56046;47.270;11.368;2022-11-09T16:30:10;8.00;;;3.83;;
68989;SDS011;56046;47.270;11.368;2022-11-09T16:32:36;11.77;;;3.83;;
68989;SDS011;56046;47.270;11.368;2022-11-09T16:35:02;8.55;;;3.10;;
68989;SDS011;56046;47.270;11.368;2022-11-09T16:37:30;13.48;;;5.80;;
68989;SDS011;56046;47.270;11.368;2022-11-09T16:39:59;10.03;;;3.83;;
68989;SDS011;56046;47.270;11.368;2022-11-09T16:42:29;7.80;;;3.50;;
68989;SDS011;56046;47.270;11.368;2022-11-09T16:44:58;8.88;;;3.58;;
68989;SDS011;56046;47.270;11.368;2022-11-09T16:47:34;7.38;;;4.10;;
68989;SDS011;56046;47.270;11.368;2022-11-09T16:50:02;13.02;;;5.65;;
68989;SDS011;56046;47.270;11.368;2022-11-09T16:52:28;9.73;;;3.47;;
68989;SDS011;56046;47.270;11.368;2022-11-09T16:54:53;10.40;;;5.10;;
68989;SDS011;56046;47.270;11.368;2022-11-09T16:57:19;7.80;;;4.10;;
68989;SDS011;56046;47.270;11.368;2022-11-09T16:59:44;9.10;;;3.97;;
68989;SDS011;56046;47.270;11.368;2022-11-09T17:02:10;10.73;;;3.70;;
68989;SDS011;56046;47.270;11.368;2022-11-09T17:04:35;9.47;;;4.30;;